sensor_id;sensor_type;location;lat;lon;timestamp;P1;durP1;ratioP1;P2;durP2;ratioP2
36547;SDS011;22551;52.206;4.856;2022-07-19T00:04:03;4.15;;;2.63;;
36547;SDS011;22551;52.206;4.856;2022-07-19T00:09:07;4.65;;;3.13;;
36547;SDS011;22551;52.206;4.856;2022-07-19T00:14:09;4.15;;;2.55;;
36547;SDS011;22551;52.206;4.856;2022-07-19T00:19:11;3.97;;;2.45;;
36547;SDS011;22551;52.206;4.856;2022-07-19T00:24:15;5.93;;;2.88;;
36547;SDS011;22551;52.206;4.856;2022-07-19T00:29:17;3.95;;;2.72;;
36547;SDS011;22551;52.206;4.856;2022-07-19T00:34:19;7.18;;;3.28;;
36547;SDS011;22551;52.206;4.856;2022-07-19T00:39:23;4.40;;;2.55;;
36547;SDS011;22551;52.206;4.856;2022-07-19T00:44:25;6.30;;;2.90;;
36547;SDS011;22551;52.206;4.856;2022-07-19T00:49:27;5.78;;;3.03;;
36547;SDS011;22551;52.206;4.856;2022-07-19T00:54:31;3.78;;;2.60;;
36547;SDS011;22551;52.206;4.856;2022-07-19T00:59:36;5.30;;;3.35;;
36547;SDS011;22551;52.206;4.856;2022-07-19T01:04:38;4.50;;;3.13;;
36547;SDS011;22551;52.206;4.856;2022-07-19T01:09:42;5.18;;;2.80;;
36547;SDS011;22551;52.206;4.856;2022-07-19T01:14:44;4.18;;;2.60;;
36547;SDS011;22551;52.206;4.856;2022-07-19T01:19:46;4.13;;;2.95;;
36547;SDS011;22551;52.206;4.856;2022-07-19T01:24:50;4.47;;;2.70;;
36547;SDS011;22551;52.206;4.856;2022-07-19T01:29:52;4.57;;;2.80;;
36547;SDS011;22551;52.206;4.856;2022-07-19T01:34:54;6.68;;;2.60;;
36547;SDS011;22551;52.206;4.856;2022-07-19T01:39:58;5.20;;;2.92;;
36547;SDS011;22551;52.206;4.856;2022-07-19T01:45:00;4.82;;;2.50;;
36547;SDS011;22551;52.206;4.856;2022-07-19T01:50:04;4.85;;;2.97;;
36547;SDS011;22551;52.206;4.856;2022-07-19T01:55:09;4.57;;;3.08;;
36547;SDS011;22551;52.206;4.856;2022-07-19T02:00:13;4.93;;;3.15;;
36547;SDS011;22551;52.206;4.856;2022-07-19T02:05:16;7.53;;;3.08;;
36547;SDS011;22551;52.206;4.856;2022-07-19T02:10:19;5.90;;;3.10;;
36547;SDS011;22551;52.206;4.856;2022-07-19T02:15:22;7.20;;;3.42;;
36547;SDS011;22551;52.206;4.856;2022-07-19T02:20:24;7.22;;;3.45;;
36547;SDS011;22551;52.206;4.856;2022-07-19T02:25:28;7.70;;;3.00;;
36547;SDS011;22551;52.206;4.856;2022-07-19T02:30:30;5.75;;;3.83;;
36547;SDS011;22551;52.206;4.856;2022-07-19T02:35:32;6.65;;;3.63;;
36547;SDS011;22551;52.206;4.856;2022-07-19T02:40:36;8.40;;;4.13;;
36547;SDS011;22551;52.206;4.856;2022-07-19T02:45:38;8.25;;;3.63;;
36547;SDS011;22551;52.206;4.856;2022-07-19T02:50:41;5.93;;;4.00;;
36547;SDS011;22551;52.206;4.856;2022-07-19T02:55:44;7.18;;;3.80;;
36547;SDS011;22551;52.206;4.856;2022-07-19T03:00:47;3.73;;;2.83;;
36547;SDS011;22551;52.206;4.856;2022-07-19T03:05:49;5.78;;;3.53;;
36547;SDS011;22551;52.206;4.856;2022-07-19T03:10:53;6.45;;;2.95;;
36547;SDS011;22551;52.206;4.856;2022-07-19T03:15:55;8.60;;;2.92;;
36547;SDS011;22551;52.206;4.856;2022-07-19T03:20:57;4.22;;;3.00;;
36547;SDS011;22551;52.206;4.856;2022-07-19T03:26:01;4.28;;;2.67;;
36547;SDS011;22551;52.206;4.856;2022-07-19T03:36:06;7.38;;;3.22;;
36547;SDS011;22551;52.206;4.856;2022-07-19T03:41:09;4.22;;;2.47;;
36547;SDS011;22551;52.206;4.856;2022-07-19T03:46:12;4.97;;;3.07;;
36547;SDS011;22551;52.206;4.856;2022-07-19T03:51:14;7.18;;;3.28;;
36547;SDS011;22551;52.206;4.856;2022-07-19T03:56:18;5.72;;;3.67;;
36547;SDS011;22551;52.206;4.856;2022-07-19T04:06:22;7.32;;;3.35;;
36547;SDS011;22551;52.206;4.856;2022-07-19T04:11:26;5.55;;;3.83;;
36547;SDS011;22551;52.206;4.856;2022-07-19T04:16:28;5.20;;;3.50;;
36547;SDS011;22551;52.206;4.856;2022-07-19T04:21:30;6.43;;;3.08;;
36547;SDS011;22551;52.206;4.856;2022-07-19T04:26:34;6.88;;;3.65;;
36547;SDS011;22551;52.206;4.856;2022-07-19T04:31:36;4.77;;;3.10;;
36547;SDS011;22551;52.206;4.856;2022-07-19T04:36:38;4.93;;;3.25;;
36547;SDS011;22551;52.206;4.856;2022-07-19T04:41:42;7.47;;;3.58;;
36547;SDS011;22551;52.206;4.856;2022-07-19T04:46:44;6.17;;;3.70;;
36547;SDS011;22551;52.206;4.856;2022-07-19T04:51:46;8.05;;;3.08;;
36547;SDS011;22551;52.206;4.856;2022-07-19T04:56:50;7.57;;;3.53;;
36547;SDS011;22551;52.206;4.856;2022-07-19T05:01:52;12.35;;;3.47;;
36547;SDS011;22551;52.206;4.856;2022-07-19T05:06:54;7.18;;;2.95;;
36547;SDS011;22551;52.206;4.856;2022-07-19T05:11:59;4.60;;;2.95;;
36547;SDS011;22551;52.206;4.856;2022-07-19T05:17:05;10.77;;;3.67;;
36547;SDS011;22551;52.206;4.856;2022-07-19T05:22:07;6.20;;;3.05;;
36547;SDS011;22551;52.206;4.856;2022-07-19T05:27:10;11.38;;;3.67;;
36547;SDS011;22551;52.206;4.856;2022-07-19T05:32:13;8.77;;;3.90;;
36547;SDS011;22551;52.206;4.856;2022-07-19T05:37:15;7.20;;;3.40;;
36547;SDS011;22551;52.206;4.856;2022-07-19T05:42:19;6.88;;;3.92;;
36547;SDS011;22551;52.206;4.856;2022-07-19T05:47:22;8.35;;;3.50;;
36547;SDS011;22551;52.206;4.856;2022-07-19T05:52:24;7.40;;;3.15;;
36547;SDS011;22551;52.206;4.856;2022-07-19T05:57:28;6.47;;;2.58;;
36547;SDS011;22551;52.206;4.856;2022-07-19T06:02:30;6.53;;;3.08;;
36547;SDS011;22551;52.206;4.856;2022-07-19T06:07:32;6.57;;;2.17;;
36547;SDS011;22551;52.206;4.856;2022-07-19T06:12:36;4.53;;;2.30;;
36547;SDS011;22551;52.206;4.856;2022-07-19T06:17:38;4.50;;;2.10;;
36547;SDS011;22551;52.206;4.856;2022-07-19T06:22:40;5.18;;;2.35;;
36547;SDS011;22551;52.206;4.856;2022-07-19T06:27:43;8.32;;;2.28;;
36547;SDS011;22551;52.206;4.856;2022-07-19T06:32:46;3.88;;;2.40;;
36547;SDS011;22551;52.206;4.856;2022-07-19T06:37:48;2.53;;;1.90;;
36547;SDS011;22551;52.206;4.856;2022-07-19T06:42:52;6.43;;;1.85;;
36547;SDS011;22551;52.206;4.856;2022-07-19T06:47:54;6.10;;;2.10;;
36547;SDS011;22551;52.206;4.856;2022-07-19T06:52:56;2.70;;;2.15;;
36547;SDS011;22551;52.206;4.856;2022-07-19T06:58:00;2.75;;;1.73;;
36547;SDS011;22551;52.206;4.856;2022-07-19T07:03:02;10.05;;;2.65;;
36547;SDS011;22551;52.206;4.856;2022-07-19T07:08:05;2.80;;;2.00;;
36547;SDS011;22551;52.206;4.856;2022-07-19T07:13:08;4.95;;;2.50;;
36547;SDS011;22551;52.206;4.856;2022-07-19T07:18:10;4.93;;;2.33;;
36547;SDS011;22551;52.206;4.856;2022-07-19T07:23:12;4.87;;;2.03;;
36547;SDS011;22551;52.206;4.856;2022-07-19T07:28:16;5.60;;;2.20;;
36547;SDS011;22551;52.206;4.856;2022-07-19T07:33:18;6.72;;;2.58;;
36547;SDS011;22551;52.206;4.856;2022-07-19T07:38:20;8.38;;;2.20;;
36547;SDS011;22551;52.206;4.856;2022-07-19T07:43:24;4.75;;;1.95;;
36547;SDS011;22551;52.206;4.856;2022-07-19T07:48:26;7.38;;;2.30;;
36547;SDS011;22551;52.206;4.856;2022-07-19T07:53:29;8.80;;;2.30;;
36547;SDS011;22551;52.206;4.856;2022-07-19T07:58:32;7.78;;;1.95;;
36547;SDS011;22551;52.206;4.856;2022-07-19T08:03:35;6.85;;;1.95;;
36547;SDS011;22551;52.206;4.856;2022-07-19T08:08:37;8.27;;;2.00;;
36547;SDS011;22551;52.206;4.856;2022-07-19T08:13:41;3.20;;;1.55;;
36547;SDS011;22551;52.206;4.856;2022-07-19T08:18:44;2.95;;;1.63;;
36547;SDS011;22551;52.206;4.856;2022-07-19T08:23:46;3.60;;;1.65;;
36547;SDS011;22551;52.206;4.856;2022-07-19T08:28:50;3.10;;;1.50;;
36547;SDS011;22551;52.206;4.856;2022-07-19T08:33:53;6.68;;;1.67;;
36547;SDS011;22551;52.206;4.856;2022-07-19T08:38:55;5.10;;;1.25;;
36547;SDS011;22551;52.206;4.856;2022-07-19T08:43:59;2.47;;;1.75;;
36547;SDS011;22551;52.206;4.856;2022-07-19T08:49:04;2.35;;;1.10;;
36547;SDS011;22551;52.206;4.856;2022-07-19T08:54:07;2.08;;;1.33;;
36547;SDS011;22551;52.206;4.856;2022-07-19T08:59:11;7.75;;;2.40;;
36547;SDS011;22551;52.206;4.856;2022-07-19T09:04:15;8.20;;;2.30;;
36547;SDS011;22551;52.206;4.856;2022-07-19T09:09:18;2.42;;;1.33;;
36547;SDS011;22551;52.206;4.856;2022-07-19T09:14:24;8.38;;;1.83;;
36547;SDS011;22551;52.206;4.856;2022-07-19T09:19:30;4.78;;;1.00;;
36547;SDS011;22551;52.206;4.856;2022-07-19T09:24:36;2.00;;;1.48;;
36547;SDS011;22551;52.206;4.856;2022-07-19T09:29:42;4.13;;;1.75;;
36547;SDS011;22551;52.206;4.856;2022-07-19T09:34:49;3.70;;;2.00;;
36547;SDS011;22551;52.206;4.856;2022-07-19T09:39:53;4.05;;;2.10;;
36547;SDS011;22551;52.206;4.856;2022-07-19T09:45:00;7.07;;;1.90;;
36547;SDS011;22551;52.206;4.856;2022-07-19T09:50:05;3.08;;;1.58;;
36547;SDS011;22551;52.206;4.856;2022-07-19T09:55:10;3.97;;;1.70;;
36547;SDS011;22551;52.206;4.856;2022-07-19T10:00:15;3.75;;;1.63;;
36547;SDS011;22551;52.206;4.856;2022-07-19T10:05:19;6.57;;;1.98;;
36547;SDS011;22551;52.206;4.856;2022-07-19T10:10:23;4.07;;;1.90;;
36547;SDS011;22551;52.206;4.856;2022-07-19T10:15:32;2.45;;;1.55;;
36547;SDS011;22551;52.206;4.856;2022-07-19T10:20:42;9.88;;;4.82;;
36547;SDS011;22551;52.206;4.856;2022-07-19T10:25:48;5.65;;;1.95;;
36547;SDS011;22551;52.206;4.856;2022-07-19T10:30:52;8.90;;;2.00;;
36547;SDS011;22551;52.206;4.856;2022-07-19T10:35:54;4.07;;;1.73;;
36547;SDS011;22551;52.206;4.856;2022-07-19T10:40:56;6.00;;;1.50;;
36547;SDS011;22551;52.206;4.856;2022-07-19T10:46:10;2.00;;;1.42;;
36547;SDS011;22551;52.206;4.856;2022-07-19T10:51:26;4.47;;;1.20;;
36547;SDS011;22551;52.206;4.856;2022-07-19T10:56:31;3.75;;;1.38;;
36547;SDS011;22551;52.206;4.856;2022-07-19T11:01:54;5.38;;;1.38;;
36547;SDS011;22551;52.206;4.856;2022-07-19T11:07:13;2.83;;;1.48;;
36547;SDS011;22551;52.206;4.856;2022-07-19T11:12:25;1.85;;;1.17;;
36547;SDS011;22551;52.206;4.856;2022-07-19T11:17:34;3.45;;;0.95;;
36547;SDS011;22551;52.206;4.856;2022-07-19T11:22:38;8.15;;;1.95;;
36547;SDS011;22551;52.206;4.856;2022-07-19T11:27:42;6.53;;;1.52;;
36547;SDS011;22551;52.206;4.856;2022-07-19T11:32:51;2.95;;;1.25;;
36547;SDS011;22551;52.206;4.856;2022-07-19T11:37:57;3.03;;;1.00;;
36547;SDS011;22551;52.206;4.856;2022-07-19T11:43:03;1.20;;;1.10;;
36547;SDS011;22551;52.206;4.856;2022-07-19T11:48:08;1.92;;;0.80;;
36547;SDS011;22551;52.206;4.856;2022-07-19T11:53:10;3.38;;;0.95;;
36547;SDS011;22551;52.206;4.856;2022-07-19T11:58:20;2.57;;;1.00;;
36547;SDS011;22551;52.206;4.856;2022-07-19T12:03:24;4.88;;;1.17;;
36547;SDS011;22551;52.206;4.856;2022-07-19T12:08:32;5.78;;;1.05;;
36547;SDS011;22551;52.206;4.856;2022-07-19T12:13:41;2.45;;;1.13;;
36547;SDS011;22551;52.206;4.856;2022-07-19T12:18:46;4.80;;;1.45;;
36547;SDS011;22551;52.206;4.856;2022-07-19T12:24:14;1.23;;;1.08;;
36547;SDS011;22551;52.206;4.856;2022-07-19T12:29:20;2.85;;;1.05;;
36547;SDS011;22551;52.206;4.856;2022-07-19T12:34:26;3.85;;;1.00;;
36547;SDS011;22551;52.206;4.856;2022-07-19T12:39:29;3.40;;;1.02;;
36547;SDS011;22551;52.206;4.856;2022-07-19T12:44:32;2.78;;;1.17;;
36547;SDS011;22551;52.206;4.856;2022-07-19T12:49:43;2.63;;;1.20;;
36547;SDS011;22551;52.206;4.856;2022-07-19T12:54:47;5.88;;;1.20;;
36547;SDS011;22551;52.206;4.856;2022-07-19T12:59:49;5.40;;;1.20;;
36547;SDS011;22551;52.206;4.856;2022-07-19T13:04:53;3.88;;;1.70;;
36547;SDS011;22551;52.206;4.856;2022-07-19T13:09:55;3.70;;;1.30;;
36547;SDS011;22551;52.206;4.856;2022-07-19T13:14:57;6.90;;;1.30;;
36547;SDS011;22551;52.206;4.856;2022-07-19T13:20:01;7.20;;;1.58;;
36547;SDS011;22551;52.206;4.856;2022-07-19T13:25:05;6.63;;;1.35;;
36547;SDS011;22551;52.206;4.856;2022-07-19T13:30:11;3.60;;;1.67;;
36547;SDS011;22551;52.206;4.856;2022-07-19T13:35:15;3.42;;;1.33;;
36547;SDS011;22551;52.206;4.856;2022-07-19T13:40:17;4.13;;;1.30;;
36547;SDS011;22551;52.206;4.856;2022-07-19T13:45:20;5.82;;;1.25;;
36547;SDS011;22551;52.206;4.856;2022-07-19T13:50:23;6.07;;;1.45;;
36547;SDS011;22551;52.206;4.856;2022-07-19T13:55:26;2.60;;;1.38;;
36547;SDS011;22551;52.206;4.856;2022-07-19T14:00:28;5.53;;;1.35;;
36547;SDS011;22551;52.206;4.856;2022-07-19T14:05:32;2.22;;;1.20;;
36547;SDS011;22551;52.206;4.856;2022-07-19T14:10:38;2.97;;;1.48;;
36547;SDS011;22551;52.206;4.856;2022-07-19T14:15:41;2.83;;;1.20;;
36547;SDS011;22551;52.206;4.856;2022-07-19T14:20:45;3.22;;;1.25;;
36547;SDS011;22551;52.206;4.856;2022-07-19T14:25:47;5.65;;;1.60;;
36547;SDS011;22551;52.206;4.856;2022-07-19T14:30:50;8.02;;;1.67;;
36547;SDS011;22551;52.206;4.856;2022-07-19T14:35:54;3.15;;;1.48;;
36547;SDS011;22551;52.206;4.856;2022-07-19T14:40:56;3.50;;;1.25;;
36547;SDS011;22551;52.206;4.856;2022-07-19T14:45:58;6.30;;;1.20;;
36547;SDS011;22551;52.206;4.856;2022-07-19T14:51:03;4.43;;;1.20;;
36547;SDS011;22551;52.206;4.856;2022-07-19T14:56:05;9.13;;;1.98;;
36547;SDS011;22551;52.206;4.856;2022-07-19T15:01:08;5.78;;;1.55;;
36547;SDS011;22551;52.206;4.856;2022-07-19T15:06:12;6.40;;;1.50;;
36547;SDS011;22551;52.206;4.856;2022-07-19T15:11:15;9.73;;;1.65;;
36547;SDS011;22551;52.206;4.856;2022-07-19T15:16:17;6.30;;;1.60;;
36547;SDS011;22551;52.206;4.856;2022-07-19T15:21:21;10.13;;;2.40;;
36547;SDS011;22551;52.206;4.856;2022-07-19T15:26:23;8.05;;;1.20;;
36547;SDS011;22551;52.206;4.856;2022-07-19T15:31:25;5.47;;;1.90;;
36547;SDS011;22551;52.206;4.856;2022-07-19T15:36:29;5.75;;;1.55;;
36547;SDS011;22551;52.206;4.856;2022-07-19T15:41:31;3.95;;;1.25;;
36547;SDS011;22551;52.206;4.856;2022-07-19T15:46:34;2.40;;;1.48;;
36547;SDS011;22551;52.206;4.856;2022-07-19T15:51:37;7.65;;;1.55;;
36547;SDS011;22551;52.206;4.856;2022-07-19T15:56:40;6.50;;;2.08;;
36547;SDS011;22551;52.206;4.856;2022-07-19T16:01:42;4.53;;;1.90;;
36547;SDS011;22551;52.206;4.856;2022-07-19T16:06:45;3.17;;;1.60;;
36547;SDS011;22551;52.206;4.856;2022-07-19T16:11:48;5.32;;;1.60;;
36547;SDS011;22551;52.206;4.856;2022-07-19T16:16:50;3.65;;;1.20;;
36547;SDS011;22551;52.206;4.856;2022-07-19T16:21:54;3.22;;;1.75;;
36547;SDS011;22551;52.206;4.856;2022-07-19T16:26:56;6.32;;;1.65;;
36547;SDS011;22551;52.206;4.856;2022-07-19T16:31:58;5.25;;;1.38;;
36547;SDS011;22551;52.206;4.856;2022-07-19T16:37:02;6.13;;;1.80;;
36547;SDS011;22551;52.206;4.856;2022-07-19T16:42:08;5.00;;;1.85;;
36547;SDS011;22551;52.206;4.856;2022-07-19T16:47:10;4.03;;;1.98;;
36547;SDS011;22551;52.206;4.856;2022-07-19T16:52:14;6.00;;;1.65;;
36547;SDS011;22551;52.206;4.856;2022-07-19T16:57:17;2.88;;;1.77;;
36547;SDS011;22551;52.206;4.856;2022-07-19T17:02:19;2.40;;;1.60;;
36547;SDS011;22551;52.206;4.856;2022-07-19T17:07:22;8.77;;;2.20;;
36547;SDS011;22551;52.206;4.856;2022-07-19T17:12:24;10.38;;;2.38;;
36547;SDS011;22551;52.206;4.856;2022-07-19T17:17:26;3.78;;;2.20;;
36547;SDS011;22551;52.206;4.856;2022-07-19T17:22:30;4.28;;;1.50;;
36547;SDS011;22551;52.206;4.856;2022-07-19T17:27:32;9.25;;;1.80;;
36547;SDS011;22551;52.206;4.856;2022-07-19T17:32:35;3.70;;;1.27;;
36547;SDS011;22551;52.206;4.856;2022-07-19T17:37:39;2.53;;;1.55;;
36547;SDS011;22551;52.206;4.856;2022-07-19T17:42:41;8.65;;;1.73;;
36547;SDS011;22551;52.206;4.856;2022-07-19T17:47:43;2.10;;;1.63;;
36547;SDS011;22551;52.206;4.856;2022-07-19T17:52:47;8.45;;;4.75;;
36547;SDS011;22551;52.206;4.856;2022-07-19T17:57:49;3.15;;;1.73;;
36547;SDS011;22551;52.206;4.856;2022-07-19T18:02:51;4.03;;;1.45;;
36547;SDS011;22551;52.206;4.856;2022-07-19T18:07:55;3.53;;;1.73;;
36547;SDS011;22551;52.206;4.856;2022-07-19T18:12:57;3.58;;;1.85;;
36547;SDS011;22551;52.206;4.856;2022-07-19T18:18:00;6.28;;;1.52;;
36547;SDS011;22551;52.206;4.856;2022-07-19T18:23:03;4.60;;;1.80;;
36547;SDS011;22551;52.206;4.856;2022-07-19T18:28:06;3.28;;;1.45;;
36547;SDS011;22551;52.206;4.856;2022-07-19T18:33:08;8.27;;;1.85;;
36547;SDS011;22551;52.206;4.856;2022-07-19T18:38:12;2.10;;;1.23;;
36547;SDS011;22551;52.206;4.856;2022-07-19T18:43:14;3.35;;;1.42;;
36547;SDS011;22551;52.206;4.856;2022-07-19T18:53:31;4.00;;;1.52;;
36547;SDS011;22551;52.206;4.856;2022-07-19T18:58:35;3.17;;;2.00;;
36547;SDS011;22551;52.206;4.856;2022-07-19T19:08:41;3.87;;;2.03;;
36547;SDS011;22551;52.206;4.856;2022-07-19T19:13:43;3.28;;;1.90;;
36547;SDS011;22551;52.206;4.856;2022-07-19T19:18:46;3.72;;;1.73;;
36547;SDS011;22551;52.206;4.856;2022-07-19T19:23:49;3.13;;;1.83;;
36547;SDS011;22551;52.206;4.856;2022-07-19T19:28:52;6.30;;;2.65;;
36547;SDS011;22551;52.206;4.856;2022-07-19T19:33:55;3.20;;;2.25;;
36547;SDS011;22551;52.206;4.856;2022-07-19T19:38:58;4.53;;;2.65;;
36547;SDS011;22551;52.206;4.856;2022-07-19T19:44:01;6.82;;;1.98;;
36547;SDS011;22551;52.206;4.856;2022-07-19T19:49:03;5.72;;;1.88;;
36547;SDS011;22551;52.206;4.856;2022-07-19T19:54:07;3.95;;;2.22;;
36547;SDS011;22551;52.206;4.856;2022-07-19T19:59:09;7.10;;;2.90;;
36547;SDS011;22551;52.206;4.856;2022-07-19T20:04:11;8.55;;;2.85;;
36547;SDS011;22551;52.206;4.856;2022-07-19T20:09:15;11.37;;;4.27;;
36547;SDS011;22551;52.206;4.856;2022-07-19T20:14:17;3.65;;;2.42;;
36547;SDS011;22551;52.206;4.856;2022-07-19T20:19:22;3.08;;;2.50;;
36547;SDS011;22551;52.206;4.856;2022-07-19T20:24:26;3.17;;;2.33;;
36547;SDS011;22551;52.206;4.856;2022-07-19T20:29:28;4.30;;;1.92;;
36547;SDS011;22551;52.206;4.856;2022-07-19T20:34:30;2.97;;;2.00;;
36547;SDS011;22551;52.206;4.856;2022-07-19T20:39:34;5.93;;;2.70;;
36547;SDS011;22551;52.206;4.856;2022-07-19T20:44:36;6.32;;;2.08;;
36547;SDS011;22551;52.206;4.856;2022-07-19T20:49:39;6.23;;;2.17;;
36547;SDS011;22551;52.206;4.856;2022-07-19T20:54:42;4.43;;;2.05;;
36547;SDS011;22551;52.206;4.856;2022-07-19T20:59:44;3.17;;;1.63;;
36547;SDS011;22551;52.206;4.856;2022-07-19T21:04:47;6.80;;;2.57;;
36547;SDS011;22551;52.206;4.856;2022-07-19T21:09:50;6.40;;;3.93;;
36547;SDS011;22551;52.206;4.856;2022-07-19T21:14:53;5.43;;;2.50;;
36547;SDS011;22551;52.206;4.856;2022-07-19T21:19:55;4.93;;;2.63;;
36547;SDS011;22551;52.206;4.856;2022-07-19T21:24:59;7.43;;;2.33;;
36547;SDS011;22551;52.206;4.856;2022-07-19T21:30:02;4.00;;;1.92;;
36547;SDS011;22551;52.206;4.856;2022-07-19T21:35:06;6.70;;;2.20;;
36547;SDS011;22551;52.206;4.856;2022-07-19T21:40:11;7.35;;;2.30;;
36547;SDS011;22551;52.206;4.856;2022-07-19T21:45:15;7.25;;;3.45;;
36547;SDS011;22551;52.206;4.856;2022-07-19T21:50:17;5.47;;;2.83;;
36547;SDS011;22551;52.206;4.856;2022-07-19T21:55:21;4.07;;;2.53;;
36547;SDS011;22551;52.206;4.856;2022-07-19T22:00:23;3.75;;;2.40;;
36547;SDS011;22551;52.206;4.856;2022-07-19T22:05:25;5.55;;;2.20;;
36547;SDS011;22551;52.206;4.856;2022-07-19T22:10:29;2.57;;;1.73;;
36547;SDS011;22551;52.206;4.856;2022-07-19T22:15:31;3.55;;;2.08;;
36547;SDS011;22551;52.206;4.856;2022-07-19T22:20:33;3.67;;;2.13;;
36547;SDS011;22551;52.206;4.856;2022-07-19T22:25:37;4.13;;;2.63;;
36547;SDS011;22551;52.206;4.856;2022-07-19T22:30:39;3.70;;;1.95;;
36547;SDS011;22551;52.206;4.856;2022-07-19T22:40:46;4.78;;;2.40;;
36547;SDS011;22551;52.206;4.856;2022-07-19T22:45:48;2.97;;;2.17;;
36547;SDS011;22551;52.206;4.856;2022-07-19T22:50:51;9.63;;;2.50;;
36547;SDS011;22551;52.206;4.856;2022-07-19T22:55:55;3.23;;;1.90;;
36547;SDS011;22551;52.206;4.856;2022-07-19T23:00:57;3.10;;;1.92;;
36547;SDS011;22551;52.206;4.856;2022-07-19T23:05:59;3.07;;;2.30;;
36547;SDS011;22551;52.206;4.856;2022-07-19T23:11:03;4.15;;;2.25;;
36547;SDS011;22551;52.206;4.856;2022-07-19T23:16:06;2.95;;;2.33;;
36547;SDS011;22551;52.206;4.856;2022-07-19T23:21:08;2.33;;;2.10;;
36547;SDS011;22551;52.206;4.856;2022-07-19T23:26:12;5.22;;;2.20;;
36547;SDS011;22551;52.206;4.856;2022-07-19T23:31:14;4.35;;;2.78;;
36547;SDS011;22551;52.206;4.856;2022-07-19T23:36:16;3.03;;;2.40;;
36547;SDS011;22551;52.206;4.856;2022-07-19T23:41:25;4.00;;;2.50;;
36547;SDS011;22551;52.206;4.856;2022-07-19T23:51:38;3.72;;;2.40;;
36547;SDS011;22551;52.206;4.856;2022-07-19T23:56:43;6.72;;;2.70;;
